sensor_id;sensor_type;location;lat;lon;timestamp;pressure;altitude;pressure_sealevel;temperature;humidity
30875;BME280;17581;43.222;27.924;2023-04-24T00:01:11;100711.97;;;11.05;68.58
30875;BME280;17581;43.222;27.924;2023-04-24T00:03:38;100708.28;;;11.06;67.91
30875;BME280;17581;43.222;27.924;2023-04-24T00:06:04;100704.03;;;11.04;67.95
30875;BME280;17581;43.222;27.924;2023-04-24T00:08:32;100700.34;;;11.05;67.65
30875;BME280;17581;43.222;27.924;2023-04-24T00:10:57;100699.16;;;10.98;67.81
30875;BME280;17581;43.222;27.924;2023-04-24T00:13:23;100697.19;;;11.00;67.95
30875;BME280;17581;43.222;27.924;2023-04-24T00:15:49;100701.44;;;11.02;68.39
30875;BME280;17581;43.222;27.924;2023-04-24T00:18:14;100696.22;;;10.89;67.68
30875;BME280;17581;43.222;27.924;2023-04-24T00:20:40;100691.94;;;10.87;68.30
30875;BME280;17581;43.222;27.924;2023-04-24T00:23:05;100684.97;;;10.84;68.27
30875;BME280;17581;43.222;27.924;2023-04-24T00:25:31;100682.28;;;10.84;68.49
30875;BME280;17581;43.222;27.924;2023-04-24T00:27:56;100670.56;;;10.74;69.01
30875;BME280;17581;43.222;27.924;2023-04-24T00:30:22;100691.47;;;10.82;68.69
30875;BME280;17581;43.222;27.924;2023-04-24T00:32:47;100681.53;;;10.82;68.87
30875;BME280;17581;43.222;27.924;2023-04-24T00:35:13;100688.53;;;10.85;68.88
30875;BME280;17581;43.222;27.924;2023-04-24T00:37:39;100674.81;;;10.77;68.05
30875;BME280;17581;43.222;27.924;2023-04-24T00:40:06;100682.66;;;10.80;68.70
30875;BME280;17581;43.222;27.924;2023-04-24T00:42:31;100684.47;;;10.79;68.57
30875;BME280;17581;43.222;27.924;2023-04-24T00:44:58;100684.22;;;10.82;68.86
30875;BME280;17581;43.222;27.924;2023-04-24T00:47:25;100688.13;;;10.89;68.26
30875;BME280;17581;43.222;27.924;2023-04-24T00:49:50;100684.59;;;10.89;68.39
30875;BME280;17581;43.222;27.924;2023-04-24T00:52:16;100685.44;;;10.89;68.23
30875;BME280;17581;43.222;27.924;2023-04-24T00:54:44;100694.03;;;10.95;68.01
30875;BME280;17581;43.222;27.924;2023-04-24T00:57:10;100685.69;;;10.98;68.04
30875;BME280;17581;43.222;27.924;2023-04-24T00:59:36;100697.78;;;11.03;68.07
30875;BME280;17581;43.222;27.924;2023-04-24T01:02:02;100678.13;;;10.91;68.23
30875;BME280;17581;43.222;27.924;2023-04-24T01:04:27;100677.13;;;10.92;68.21
30875;BME280;17581;43.222;27.924;2023-04-24T01:06:54;100686.66;;;10.97;68.23
30875;BME280;17581;43.222;27.924;2023-04-24T01:09:22;100698.13;;;10.99;67.93
30875;BME280;17581;43.222;27.924;2023-04-24T01:11:49;100692.91;;;10.97;67.84
30875;BME280;17581;43.222;27.924;2023-04-24T01:14:14;100699.16;;;10.98;68.27
30875;BME280;17581;43.222;27.924;2023-04-24T01:16:40;100694.97;;;10.93;67.71
30875;BME280;17581;43.222;27.924;2023-04-24T01:19:06;100688.88;;;10.91;68.10
30875;BME280;17581;43.222;27.924;2023-04-24T01:21:35;100690.81;;;10.89;68.44
30875;BME280;17581;43.222;27.924;2023-04-24T01:24:02;100694.16;;;10.82;68.08
30875;BME280;17581;43.222;27.924;2023-04-24T01:26:27;100693.78;;;10.75;68.39
30875;BME280;17581;43.222;27.924;2023-04-24T01:28:53;100690.59;;;10.70;68.89
30875;BME280;17581;43.222;27.924;2023-04-24T01:31:19;100685.00;;;10.62;69.11
30875;BME280;17581;43.222;27.924;2023-04-24T01:33:45;100673.53;;;10.60;69.00
30875;BME280;17581;43.222;27.924;2023-04-24T01:36:11;100680.09;;;10.67;69.36
30875;BME280;17581;43.222;27.924;2023-04-24T01:38:37;100680.94;;;10.68;69.65
30875;BME280;17581;43.222;27.924;2023-04-24T01:41:03;100668.84;;;10.62;69.24
30875;BME280;17581;43.222;27.924;2023-04-24T01:43:28;100684.63;;;10.67;69.47
30875;BME280;17581;43.222;27.924;2023-04-24T01:45:54;100680.34;;;10.64;69.89
30875;BME280;17581;43.222;27.924;2023-04-24T01:48:19;100682.91;;;10.66;69.68
30875;BME280;17581;43.222;27.924;2023-04-24T01:50:45;100687.06;;;10.59;69.60
30875;BME280;17581;43.222;27.924;2023-04-24T01:53:11;100668.50;;;10.45;69.51
30875;BME280;17581;43.222;27.924;2023-04-24T01:55:36;100678.78;;;10.51;69.77
30875;BME280;17581;43.222;27.924;2023-04-24T01:58:02;100677.78;;;10.41;69.91
30875;BME280;17581;43.222;27.924;2023-04-24T02:00:28;100680.13;;;10.45;70.19
30875;BME280;17581;43.222;27.924;2023-04-24T02:02:53;100675.34;;;10.37;70.52
30875;BME280;17581;43.222;27.924;2023-04-24T02:05:18;100682.78;;;10.34;70.50
30875;BME280;17581;43.222;27.924;2023-04-24T02:07:44;100671.44;;;10.30;70.58
30875;BME280;17581;43.222;27.924;2023-04-24T02:10:10;100671.31;;;10.32;70.60
30875;BME280;17581;43.222;27.924;2023-04-24T02:12:35;100659.72;;;10.31;70.74
30875;BME280;17581;43.222;27.924;2023-04-24T02:15:01;100674.13;;;10.42;70.17
30875;BME280;17581;43.222;27.924;2023-04-24T02:17:27;100649.72;;;10.33;70.43
30875;BME280;17581;43.222;27.924;2023-04-24T02:19:52;100671.06;;;10.46;70.55
30875;BME280;17581;43.222;27.924;2023-04-24T02:22:18;100672.78;;;10.47;70.04
30875;BME280;17581;43.222;27.924;2023-04-24T02:24:44;100667.41;;;10.47;70.11
30875;BME280;17581;43.222;27.924;2023-04-24T02:27:09;100674.25;;;10.51;70.00
30875;BME280;17581;43.222;27.924;2023-04-24T02:29:36;100664.84;;;10.57;69.62
30875;BME280;17581;43.222;27.924;2023-04-24T02:32:01;100661.91;;;10.60;69.61
30875;BME280;17581;43.222;27.924;2023-04-24T02:34:27;100671.44;;;10.64;68.92
30875;BME280;17581;43.222;27.924;2023-04-24T02:36:52;100666.16;;;10.62;69.23
30875;BME280;17581;43.222;27.924;2023-04-24T02:39:19;100661.91;;;10.60;69.22
30875;BME280;17581;43.222;27.924;2023-04-24T02:41:45;100653.94;;;10.58;69.42
30875;BME280;17581;43.222;27.924;2023-04-24T02:44:10;100659.44;;;10.68;69.42
30875;BME280;17581;43.222;27.924;2023-04-24T02:46:36;100671.91;;;10.69;69.06
30875;BME280;17581;43.222;27.924;2023-04-24T02:49:01;100664.19;;;10.64;69.17
30875;BME280;17581;43.222;27.924;2023-04-24T02:51:27;100652.72;;;10.62;69.22
30875;BME280;17581;43.222;27.924;2023-04-24T02:53:53;100666.53;;;10.69;69.22
30875;BME280;17581;43.222;27.924;2023-04-24T02:56:18;100672.03;;;10.67;68.83
30875;BME280;17581;43.222;27.924;2023-04-24T02:58:44;100663.69;;;10.70;68.77
30875;BME280;17581;43.222;27.924;2023-04-24T03:01:09;100668.13;;;10.60;68.99
30875;BME280;17581;43.222;27.924;2023-04-24T03:03:36;100657.63;;;10.57;69.38
30875;BME280;17581;43.222;27.924;2023-04-24T03:06:01;100665.31;;;10.62;68.97
30875;BME280;17581;43.222;27.924;2023-04-24T03:08:27;100672.78;;;10.69;68.86
30875;BME280;17581;43.222;27.924;2023-04-24T03:10:52;100670.19;;;10.68;69.10
30875;BME280;17581;43.222;27.924;2023-04-24T03:13:18;100656.53;;;10.60;68.90
30875;BME280;17581;43.222;27.924;2023-04-24T03:15:43;100655.41;;;10.62;69.28
30875;BME280;17581;43.222;27.924;2023-04-24T03:18:10;100663.38;;;10.53;69.20
30875;BME280;17581;43.222;27.924;2023-04-24T03:20:35;100650.56;;;10.45;69.69
30875;BME280;17581;43.222;27.924;2023-04-24T03:23:02;100670.06;;;10.58;69.67
30875;BME280;17581;43.222;27.924;2023-04-24T03:25:28;100661.28;;;10.56;69.77
30875;BME280;17581;43.222;27.924;2023-04-24T03:27:53;100663.63;;;10.61;69.64
30875;BME280;17581;43.222;27.924;2023-04-24T03:30:20;100669.56;;;10.64;70.03
30875;BME280;17581;43.222;27.924;2023-04-24T03:32:45;100660.53;;;10.65;70.00
30875;BME280;17581;43.222;27.924;2023-04-24T03:35:11;100658.56;;;10.67;69.94
30875;BME280;17581;43.222;27.924;2023-04-24T03:37:36;100661.00;;;10.70;70.53
30875;BME280;17581;43.222;27.924;2023-04-24T03:40:02;100677.16;;;10.81;70.42
30875;BME280;17581;43.222;27.924;2023-04-24T03:42:27;100670.41;;;10.87;71.24
30875;BME280;17581;43.222;27.924;2023-04-24T03:44:53;100675.91;;;10.97;71.10
30875;BME280;17581;43.222;27.924;2023-04-24T03:47:18;100670.50;;;10.97;70.91
30875;BME280;17581;43.222;27.924;2023-04-24T03:49:44;100660.88;;;10.94;71.42
30875;BME280;17581;43.222;27.924;2023-04-24T03:52:09;100675.41;;;11.03;71.52
30875;BME280;17581;43.222;27.924;2023-04-24T03:54:35;100682.00;;;11.10;71.64
30875;BME280;17581;43.222;27.924;2023-04-24T03:57:00;100669.25;;;11.12;71.84
30875;BME280;17581;43.222;27.924;2023-04-24T03:59:28;100675.84;;;11.19;71.99
30875;BME280;17581;43.222;27.924;2023-04-24T04:01:53;100679.50;;;11.18;72.62
30875;BME280;17581;43.222;27.924;2023-04-24T04:04:19;100687.78;;;11.26;72.52
30875;BME280;17581;43.222;27.924;2023-04-24T04:06:44;100676.75;;;11.29;72.52
30875;BME280;17581;43.222;27.924;2023-04-24T04:09:11;100670.88;;;11.35;73.09
30875;BME280;17581;43.222;27.924;2023-04-24T04:11:37;100674.31;;;11.37;72.74
30875;BME280;17581;43.222;27.924;2023-04-24T04:14:03;100686.00;;;11.47;73.32
30875;BME280;17581;43.222;27.924;2023-04-24T04:16:28;100685.72;;;11.50;73.58
30875;BME280;17581;43.222;27.924;2023-04-24T04:18:54;100680.44;;;11.60;73.61
30875;BME280;17581;43.222;27.924;2023-04-24T04:21:20;100683.94;;;11.71;73.57
30875;BME280;17581;43.222;27.924;2023-04-24T04:23:45;100676.06;;;11.79;73.49
30875;BME280;17581;43.222;27.924;2023-04-24T04:26:11;100678.25;;;11.85;74.02
30875;BME280;17581;43.222;27.924;2023-04-24T04:28:37;100691.38;;;11.99;73.55
30875;BME280;17581;43.222;27.924;2023-04-24T04:31:04;100689.16;;;12.05;73.74
30875;BME280;17581;43.222;27.924;2023-04-24T04:33:30;100683.69;;;12.16;73.66
30875;BME280;17581;43.222;27.924;2023-04-24T04:35:57;100679.50;;;12.32;73.78
30875;BME280;17581;43.222;27.924;2023-04-24T04:38:22;100680.41;;;12.42;74.42
30875;BME280;17581;43.222;27.924;2023-04-24T04:40:48;100674.78;;;12.55;74.42
30875;BME280;17581;43.222;27.924;2023-04-24T04:43:13;100677.09;;;12.69;74.28
30875;BME280;17581;43.222;27.924;2023-04-24T04:45:40;100680.56;;;12.81;74.59
30875;BME280;17581;43.222;27.924;2023-04-24T04:48:08;100689.66;;;12.89;74.28
30875;BME280;17581;43.222;27.924;2023-04-24T04:50:34;100675.72;;;12.94;74.79
30875;BME280;17581;43.222;27.924;2023-04-24T04:53:00;100676.03;;;13.00;74.80
30875;BME280;17581;43.222;27.924;2023-04-24T04:55:25;100675.97;;;13.12;75.22
30875;BME280;17581;43.222;27.924;2023-04-24T04:57:51;100679.44;;;12.93;75.75
30875;BME280;17581;43.222;27.924;2023-04-24T05:00:17;100670.22;;;12.95;75.62
30875;BME280;17581;43.222;27.924;2023-04-24T05:02:42;100672.22;;;12.93;76.08
30875;BME280;17581;43.222;27.924;2023-04-24T05:05:08;100671.38;;;13.02;76.05
30875;BME280;17581;43.222;27.924;2023-04-24T05:07:34;100675.22;;;13.09;75.96
30875;BME280;17581;43.222;27.924;2023-04-24T05:09:59;100678.03;;;12.98;75.61
30875;BME280;17581;43.222;27.924;2023-04-24T05:12:25;100678.47;;;13.03;75.77
30875;BME280;17581;43.222;27.924;2023-04-24T05:14:50;100681.22;;;13.23;75.33
30875;BME280;17581;43.222;27.924;2023-04-24T05:17:16;100680.09;;;13.25;74.97
30875;BME280;17581;43.222;27.924;2023-04-24T05:19:42;100688.75;;;13.19;75.24
30875;BME280;17581;43.222;27.924;2023-04-24T05:22:08;100677.94;;;13.09;75.57
30875;BME280;17581;43.222;27.924;2023-04-24T05:24:35;100684.34;;;13.08;75.79
30875;BME280;17581;43.222;27.924;2023-04-24T05:27:00;100672.84;;;13.26;75.66
30875;BME280;17581;43.222;27.924;2023-04-24T05:29:28;100672.88;;;13.45;75.09
30875;BME280;17581;43.222;27.924;2023-04-24T05:31:56;100673.00;;;13.53;74.58
30875;BME280;17581;43.222;27.924;2023-04-24T05:34:21;100672.31;;;13.51;74.91
30875;BME280;17581;43.222;27.924;2023-04-24T05:36:47;100665.03;;;13.61;74.84
30875;BME280;17581;43.222;27.924;2023-04-24T05:39:12;100672.00;;;13.63;73.84
30875;BME280;17581;43.222;27.924;2023-04-24T05:41:38;100674.69;;;13.83;73.92
30875;BME280;17581;43.222;27.924;2023-04-24T05:44:03;100671.25;;;13.90;73.21
30875;BME280;17581;43.222;27.924;2023-04-24T05:46:28;100676.66;;;14.00;72.30
30875;BME280;17581;43.222;27.924;2023-04-24T05:48:54;100680.63;;;14.05;71.77
30875;BME280;17581;43.222;27.924;2023-04-24T05:51:19;100682.91;;;14.00;71.54
30875;BME280;17581;43.222;27.924;2023-04-24T05:53:45;100680.59;;;14.15;71.54
30875;BME280;17581;43.222;27.924;2023-04-24T05:56:11;100682.59;;;14.13;71.17
30875;BME280;17581;43.222;27.924;2023-04-24T05:58:36;100690.56;;;14.14;70.47
30875;BME280;17581;43.222;27.924;2023-04-24T06:01:03;100674.63;;;14.11;70.40
30875;BME280;17581;43.222;27.924;2023-04-24T06:03:28;100690.13;;;14.19;70.94
30875;BME280;17581;43.222;27.924;2023-04-24T06:05:54;100676.63;;;14.09;70.69
30875;BME280;17581;43.222;27.924;2023-04-24T06:08:19;100685.16;;;14.14;70.57
30875;BME280;17581;43.222;27.924;2023-04-24T06:10:45;100672.66;;;13.94;70.10
30875;BME280;17581;43.222;27.924;2023-04-24T06:13:11;100677.03;;;14.14;70.88
30875;BME280;17581;43.222;27.924;2023-04-24T06:15:37;100690.88;;;14.02;70.78
30875;BME280;17581;43.222;27.924;2023-04-24T06:18:03;100682.34;;;14.06;70.85
30875;BME280;17581;43.222;27.924;2023-04-24T06:20:28;100684.03;;;14.07;70.38
30875;BME280;17581;43.222;27.924;2023-04-24T06:22:54;100684.59;;;14.01;70.81
30875;BME280;17581;43.222;27.924;2023-04-24T06:25:19;100691.16;;;14.08;70.32
30875;BME280;17581;43.222;27.924;2023-04-24T06:27:45;100677.25;;;13.94;70.48
30875;BME280;17581;43.222;27.924;2023-04-24T06:30:11;100677.81;;;13.88;70.82
30875;BME280;17581;43.222;27.924;2023-04-24T06:32:37;100694.72;;;13.99;71.60
30875;BME280;17581;43.222;27.924;2023-04-24T06:35:02;100688.03;;;14.03;71.98
30875;BME280;17581;43.222;27.924;2023-04-24T06:37:28;100686.28;;;14.22;71.88
30875;BME280;17581;43.222;27.924;2023-04-24T06:39:54;100676.78;;;14.08;71.48
30875;BME280;17581;43.222;27.924;2023-04-24T06:42:19;100681.75;;;14.12;71.83
30875;BME280;17581;43.222;27.924;2023-04-24T06:44:46;100689.41;;;14.17;72.19
30875;BME280;17581;43.222;27.924;2023-04-24T06:47:11;100695.09;;;14.24;72.09
30875;BME280;17581;43.222;27.924;2023-04-24T06:49:40;100676.88;;;14.16;72.38
30875;BME280;17581;43.222;27.924;2023-04-24T06:52:06;100687.84;;;14.24;72.19
30875;BME280;17581;43.222;27.924;2023-04-24T06:54:31;100683.69;;;14.30;72.00
30875;BME280;17581;43.222;27.924;2023-04-24T06:56:57;100684.28;;;14.24;71.67
30875;BME280;17581;43.222;27.924;2023-04-24T06:59:24;100693.97;;;14.16;72.14
30875;BME280;17581;43.222;27.924;2023-04-24T07:01:50;100680.59;;;14.25;71.76
30875;BME280;17581;43.222;27.924;2023-04-24T07:04:16;100677.44;;;14.39;71.56
30875;BME280;17581;43.222;27.924;2023-04-24T07:06:42;100693.34;;;14.42;71.33
30875;BME280;17581;43.222;27.924;2023-04-24T07:09:08;100690.19;;;14.46;71.12
30875;BME280;17581;43.222;27.924;2023-04-24T07:11:35;100686.81;;;14.35;71.17
30875;BME280;17581;43.222;27.924;2023-04-24T07:14:02;100687.66;;;14.45;72.00
30875;BME280;17581;43.222;27.924;2023-04-24T07:16:27;100698.72;;;14.61;71.97
30875;BME280;17581;43.222;27.924;2023-04-24T07:18:53;100694.75;;;14.55;71.64
30875;BME280;17581;43.222;27.924;2023-04-24T07:21:18;100700.69;;;14.59;72.37
30875;BME280;17581;43.222;27.924;2023-04-24T07:23:44;100684.56;;;14.40;73.39
30875;BME280;17581;43.222;27.924;2023-04-24T07:26:09;100682.56;;;14.23;72.95
30875;BME280;17581;43.222;27.924;2023-04-24T07:28:35;100699.09;;;14.19;73.69
30875;BME280;17581;43.222;27.924;2023-04-24T07:31:00;100693.66;;;14.29;74.71
30875;BME280;17581;43.222;27.924;2023-04-24T07:33:26;100683.41;;;14.42;75.22
30875;BME280;17581;43.222;27.924;2023-04-24T07:35:52;100691.91;;;14.47;75.09
30875;BME280;17581;43.222;27.924;2023-04-24T07:38:18;100685.88;;;14.63;73.80
30875;BME280;17581;43.222;27.924;2023-04-24T07:40:50;100698.69;;;14.70;73.47
30875;BME280;17581;43.222;27.924;2023-04-24T07:43:15;100692.28;;;14.62;73.36
30875;BME280;17581;43.222;27.924;2023-04-24T07:45:40;100695.28;;;14.59;74.58
30875;BME280;17581;43.222;27.924;2023-04-24T07:48:06;100705.63;;;14.73;74.74
30875;BME280;17581;43.222;27.924;2023-04-24T07:50:34;100712.06;;;14.62;74.70
30875;BME280;17581;43.222;27.924;2023-04-24T07:53:01;100701.53;;;14.59;75.58
30875;BME280;17581;43.222;27.924;2023-04-24T07:55:26;100697.59;;;14.54;75.89
30875;BME280;17581;43.222;27.924;2023-04-24T07:57:52;100700.59;;;14.51;75.66
30875;BME280;17581;43.222;27.924;2023-04-24T08:00:17;100704.81;;;14.63;74.72
30875;BME280;17581;43.222;27.924;2023-04-24T08:02:43;100712.91;;;14.73;75.04
30875;BME280;17581;43.222;27.924;2023-04-24T08:05:08;100712.56;;;14.85;73.35
30875;BME280;17581;43.222;27.924;2023-04-24T08:07:34;100708.22;;;14.92;72.27
30875;BME280;17581;43.222;27.924;2023-04-24T08:10:00;100708.66;;;14.70;70.25
30875;BME280;17581;43.222;27.924;2023-04-24T08:12:28;100703.41;;;14.86;72.12
30875;BME280;17581;43.222;27.924;2023-04-24T08:14:53;100707.94;;;14.95;72.44
30875;BME280;17581;43.222;27.924;2023-04-24T08:17:19;100712.50;;;14.95;72.13
30875;BME280;17581;43.222;27.924;2023-04-24T08:19:44;100714.97;;;14.88;72.33
30875;BME280;17581;43.222;27.924;2023-04-24T08:22:14;100701.50;;;14.96;73.25
30875;BME280;17581;43.222;27.924;2023-04-24T08:24:40;100714.44;;;14.75;73.52
30875;BME280;17581;43.222;27.924;2023-04-24T08:27:05;100704.63;;;14.74;73.62
30875;BME280;17581;43.222;27.924;2023-04-24T08:29:31;100713.13;;;14.89;73.36
30875;BME280;17581;43.222;27.924;2023-04-24T08:31:57;100710.53;;;14.87;73.14
30875;BME280;17581;43.222;27.924;2023-04-24T08:34:22;100715.34;;;14.93;73.65
30875;BME280;17581;43.222;27.924;2023-04-24T08:36:48;100701.75;;;15.03;73.49
30875;BME280;17581;43.222;27.924;2023-04-24T08:39:14;100708.72;;;15.05;74.11
30875;BME280;17581;43.222;27.924;2023-04-24T08:41:42;100710.16;;;15.09;73.17
30875;BME280;17581;43.222;27.924;2023-04-24T08:44:09;100711.25;;;15.16;73.40
30875;BME280;17581;43.222;27.924;2023-04-24T08:46:35;100708.66;;;14.97;72.43
30875;BME280;17581;43.222;27.924;2023-04-24T08:49:01;100697.38;;;14.92;72.96
30875;BME280;17581;43.222;27.924;2023-04-24T08:51:27;100699.91;;;15.03;73.65
30875;BME280;17581;43.222;27.924;2023-04-24T08:53:54;100701.78;;;15.20;74.00
30875;BME280;17581;43.222;27.924;2023-04-24T08:56:21;100688.25;;;15.20;72.73
30875;BME280;17581;43.222;27.924;2023-04-24T08:58:50;100691.75;;;15.31;70.95
30875;BME280;17581;43.222;27.924;2023-04-24T09:01:16;100692.00;;;15.37;70.58
30875;BME280;17581;43.222;27.924;2023-04-24T09:03:43;100674.88;;;15.37;71.40
30875;BME280;17581;43.222;27.924;2023-04-24T09:06:09;100697.81;;;15.60;70.91
30875;BME280;17581;43.222;27.924;2023-04-24T09:08:36;100693.03;;;15.71;70.18
30875;BME280;17581;43.222;27.924;2023-04-24T09:11:01;100697.44;;;15.72;69.81
30875;BME280;17581;43.222;27.924;2023-04-24T09:13:28;100689.16;;;15.74;69.66
30875;BME280;17581;43.222;27.924;2023-04-24T09:15:53;100695.19;;;15.86;70.27
30875;BME280;17581;43.222;27.924;2023-04-24T09:18:19;100697.00;;;15.59;70.18
30875;BME280;17581;43.222;27.924;2023-04-24T09:21:17;100697.06;;;15.50;71.73
30875;BME280;17581;43.222;27.924;2023-04-24T09:23:45;100701.00;;;15.55;71.70
30875;BME280;17581;43.222;27.924;2023-04-24T09:26:10;100702.00;;;15.54;72.19
30875;BME280;17581;43.222;27.924;2023-04-24T09:28:39;100694.25;;;15.77;71.80
30875;BME280;17581;43.222;27.924;2023-04-24T09:31:14;100694.72;;;15.72;70.05
30875;BME280;17581;43.222;27.924;2023-04-24T09:33:56;100700.38;;;15.79;69.89
30875;BME280;17581;43.222;27.924;2023-04-24T09:36:35;100684.50;;;15.49;69.47
30875;BME280;17581;43.222;27.924;2023-04-24T09:39:10;100697.81;;;15.60;70.67
30875;BME280;17581;43.222;27.924;2023-04-24T09:41:57;100698.59;;;15.70;69.56
30875;BME280;17581;43.222;27.924;2023-04-24T09:44:24;100690.72;;;15.59;68.01
30875;BME280;17581;43.222;27.924;2023-04-24T09:46:54;100690.47;;;15.70;69.04
30875;BME280;17581;43.222;27.924;2023-04-24T09:49:26;100688.94;;;15.93;68.30
30875;BME280;17581;43.222;27.924;2023-04-24T09:52:10;100686.31;;;16.01;67.50
30875;BME280;17581;43.222;27.924;2023-04-24T09:54:37;100689.34;;;15.98;67.41
30875;BME280;17581;43.222;27.924;2023-04-24T09:57:04;100680.75;;;15.85;69.01
30875;BME280;17581;43.222;27.924;2023-04-24T09:59:30;100681.69;;;15.76;68.76
30875;BME280;17581;43.222;27.924;2023-04-24T10:01:55;100679.91;;;16.02;69.55
30875;BME280;17581;43.222;27.924;2023-04-24T10:04:24;100658.13;;;15.94;69.11
30875;BME280;17581;43.222;27.924;2023-04-24T10:06:52;100687.09;;;16.11;68.77
30875;BME280;17581;43.222;27.924;2023-04-24T10:09:19;100679.31;;;16.16;68.56
30875;BME280;17581;43.222;27.924;2023-04-24T10:11:46;100676.81;;;16.23;69.18
30875;BME280;17581;43.222;27.924;2023-04-24T10:14:13;100677.06;;;16.38;68.82
30875;BME280;17581;43.222;27.924;2023-04-24T10:16:40;100675.59;;;16.51;68.54
30875;BME280;17581;43.222;27.924;2023-04-24T10:19:06;100668.00;;;16.55;66.93
30875;BME280;17581;43.222;27.924;2023-04-24T10:21:32;100669.41;;;16.59;67.26
30875;BME280;17581;43.222;27.924;2023-04-24T10:23:59;100675.91;;;16.48;67.01
30875;BME280;17581;43.222;27.924;2023-04-24T10:26:26;100667.59;;;16.42;66.83
30875;BME280;17581;43.222;27.924;2023-04-24T10:28:54;100667.38;;;16.09;68.13
30875;BME280;17581;43.222;27.924;2023-04-24T10:31:20;100667.81;;;16.22;68.54
30875;BME280;17581;43.222;27.924;2023-04-24T10:33:46;100662.81;;;16.10;68.35
30875;BME280;17581;43.222;27.924;2023-04-24T10:36:13;100663.97;;;16.07;67.70
30875;BME280;17581;43.222;27.924;2023-04-24T10:38:41;100667.13;;;16.20;68.86
30875;BME280;17581;43.222;27.924;2023-04-24T10:41:09;100656.03;;;16.40;67.39
30875;BME280;17581;43.222;27.924;2023-04-24T10:43:35;100649.13;;;16.19;67.30
30875;BME280;17581;43.222;27.924;2023-04-24T10:46:05;100663.66;;;16.10;67.91
30875;BME280;17581;43.222;27.924;2023-04-24T10:48:31;100656.94;;;16.22;67.66
30875;BME280;17581;43.222;27.924;2023-04-24T10:50:57;100663.28;;;16.31;67.74
30875;BME280;17581;43.222;27.924;2023-04-24T10:53:27;100649.91;;;16.38;67.93
30875;BME280;17581;43.222;27.924;2023-04-24T10:56:03;100664.72;;;16.69;67.21
30875;BME280;17581;43.222;27.924;2023-04-24T10:58:40;100653.44;;;16.56;65.79
30875;BME280;17581;43.222;27.924;2023-04-24T11:01:06;100648.28;;;16.78;66.30
30875;BME280;17581;43.222;27.924;2023-04-24T11:03:33;100653.38;;;16.81;66.56
30875;BME280;17581;43.222;27.924;2023-04-24T11:06:07;100651.56;;;16.98;65.89
30875;BME280;17581;43.222;27.924;2023-04-24T11:11:03;100640.06;;;17.12;65.52
30875;BME280;17581;43.222;27.924;2023-04-24T11:16:34;100634.91;;;16.93;65.74
30875;BME280;17581;43.222;27.924;2023-04-24T11:19:24;100639.16;;;16.88;65.66
30875;BME280;17581;43.222;27.924;2023-04-24T11:22:04;100631.00;;;16.96;65.51
30875;BME280;17581;43.222;27.924;2023-04-24T11:40:13;100630.94;;;16.71;67.25
30875;BME280;17581;43.222;27.924;2023-04-24T11:42:42;100635.72;;;16.52;67.82
30875;BME280;17581;43.222;27.924;2023-04-24T11:45:13;100634.28;;;16.57;68.09
30875;BME280;17581;43.222;27.924;2023-04-24T11:47:39;100629.94;;;16.72;67.78
30875;BME280;17581;43.222;27.924;2023-04-24T11:50:07;100627.00;;;16.66;67.41
30875;BME280;17581;43.222;27.924;2023-04-24T11:52:37;100624.19;;;16.50;68.23
30875;BME280;17581;43.222;27.924;2023-04-24T11:55:03;100623.00;;;16.86;66.98
30875;BME280;17581;43.222;27.924;2023-04-24T11:57:29;100618.56;;;16.77;66.49
30875;BME280;17581;43.222;27.924;2023-04-24T12:00:02;100619.97;;;16.97;65.43
30875;BME280;17581;43.222;27.924;2023-04-24T12:02:30;100618.41;;;16.86;66.36
30875;BME280;17581;43.222;27.924;2023-04-24T12:04:55;100611.41;;;16.76;66.16
30875;BME280;17581;43.222;27.924;2023-04-24T12:07:22;100609.94;;;16.98;66.86
30875;BME280;17581;43.222;27.924;2023-04-24T12:09:58;100595.88;;;17.02;65.36
30875;BME280;17581;43.222;27.924;2023-04-24T12:12:28;100600.44;;;17.02;64.38
30875;BME280;17581;43.222;27.924;2023-04-24T12:14:58;100592.78;;;16.97;66.27
30875;BME280;17581;43.222;27.924;2023-04-24T12:17:28;100589.94;;;17.15;65.38
30875;BME280;17581;43.222;27.924;2023-04-24T12:20:01;100585.88;;;17.27;64.70
30875;BME280;17581;43.222;27.924;2023-04-24T12:22:28;100582.28;;;17.10;64.20
30875;BME280;17581;43.222;27.924;2023-04-24T12:25:02;100585.19;;;17.09;65.11
30875;BME280;17581;43.222;27.924;2023-04-24T12:27:30;100577.53;;;17.04;65.55
30875;BME280;17581;43.222;27.924;2023-04-24T12:29:57;100586.47;;;16.80;65.92
30875;BME280;17581;43.222;27.924;2023-04-24T12:32:24;100575.09;;;16.77;67.06
30875;BME280;17581;43.222;27.924;2023-04-24T12:34:51;100566.63;;;16.88;66.49
30875;BME280;17581;43.222;27.924;2023-04-24T12:37:17;100569.50;;;16.78;66.43
30875;BME280;17581;43.222;27.924;2023-04-24T12:40:11;100568.44;;;16.63;67.20
30875;BME280;17581;43.222;27.924;2023-04-24T12:42:48;100567.50;;;16.47;68.04
30875;BME280;17581;43.222;27.924;2023-04-24T12:45:14;100574.91;;;16.37;68.61
30875;BME280;17581;43.222;27.924;2023-04-24T12:47:41;100563.81;;;16.14;69.35
30875;BME280;17581;43.222;27.924;2023-04-24T12:50:08;100556.44;;;16.40;68.90
30875;BME280;17581;43.222;27.924;2023-04-24T12:52:35;100560.00;;;16.32;69.25
30875;BME280;17581;43.222;27.924;2023-04-24T12:55:01;100573.50;;;16.24;69.28
30875;BME280;17581;43.222;27.924;2023-04-24T12:57:28;100560.69;;;16.43;68.99
30875;BME280;17581;43.222;27.924;2023-04-24T12:59:55;100554.28;;;16.52;68.03